createdAt,value
2022-08-19T00:00:07.176Z,18.75
2022-08-19T00:01:07.161Z,18.74
2022-08-19T00:02:07.140Z,18.73
2022-08-19T00:03:07.133Z,18.73
2022-08-19T00:04:07.147Z,18.70
2022-08-19T00:05:07.152Z,18.70
2022-08-19T00:06:07.102Z,18.66
2022-08-19T00:07:07.100Z,18.65
2022-08-19T00:08:07.085Z,18.63
2022-08-19T00:09:07.086Z,18.62
2022-08-19T00:10:07.052Z,18.59
2022-08-19T00:11:07.056Z,18.58
2022-08-19T00:12:07.032Z,18.58
2022-08-19T00:13:07.025Z,18.55
2022-08-19T00:14:07.025Z,18.52
2022-08-19T00:15:07.012Z,18.52
2022-08-19T00:16:07.985Z,18.52
2022-08-19T00:17:06.997Z,18.52
2022-08-19T00:18:06.965Z,18.52
2022-08-19T00:19:06.978Z,18.55
2022-08-19T00:20:06.974Z,18.53
2022-08-19T00:21:06.945Z,18.52
2022-08-19T00:22:06.930Z,18.52
2022-08-19T00:23:06.925Z,18.52
2022-08-19T00:24:06.917Z,18.49
2022-08-19T00:25:06.897Z,18.49
2022-08-19T00:26:06.885Z,18.45
2022-08-19T00:27:26.009Z,18.44
2022-08-19T00:28:07.868Z,18.43
2022-08-19T00:29:06.848Z,18.41
2022-08-19T00:30:06.859Z,18.40
2022-08-19T00:31:07.050Z,18.38
2022-08-19T00:32:06.817Z,18.38
2022-08-19T00:33:06.824Z,18.35
2022-08-19T00:34:06.793Z,18.34
2022-08-19T00:35:06.813Z,18.35
2022-08-19T00:36:06.768Z,18.35
2022-08-19T00:37:06.768Z,18.38
2022-08-19T00:38:06.761Z,18.40
2022-08-19T00:39:06.749Z,18.41
2022-08-19T00:40:06.783Z,18.40
2022-08-19T00:41:06.754Z,18.40
2022-08-19T00:42:06.709Z,18.41
2022-08-19T00:43:06.713Z,18.38
2022-08-19T00:44:06.684Z,18.35
2022-08-19T00:45:06.701Z,18.35
2022-08-19T00:46:06.654Z,18.37
2022-08-19T00:47:06.650Z,18.37
2022-08-19T00:48:13.449Z,18.34
2022-08-19T00:49:07.633Z,18.37
2022-08-19T00:50:06.733Z,18.37
2022-08-19T00:51:06.641Z,18.37
2022-08-19T00:52:06.634Z,18.35
2022-08-19T00:53:06.681Z,18.37
2022-08-19T00:54:06.693Z,18.34
2022-08-19T00:55:06.725Z,18.33
2022-08-19T00:56:06.762Z,18.31
2022-08-19T00:57:06.753Z,18.29
2022-08-19T00:58:06.793Z,18.28
2022-08-19T00:59:06.834Z,18.26
2022-08-19T01:00:06.874Z,18.26
2022-08-19T01:01:06.853Z,18.25
2022-08-19T01:02:06.489Z,18.23
2022-08-19T01:03:06.514Z,18.20
2022-08-19T01:04:06.466Z,18.22
2022-08-19T01:05:06.454Z,18.20
2022-08-19T01:06:06.485Z,18.19
2022-08-19T01:07:06.454Z,18.19
2022-08-19T01:08:06.441Z,18.19
2022-08-19T01:09:06.417Z,18.20
2022-08-19T01:10:06.385Z,18.19
2022-08-19T01:11:06.707Z,18.19
2022-08-19T01:12:06.369Z,18.19
2022-08-19T01:13:06.368Z,18.20
2022-08-19T01:14:06.346Z,18.22
2022-08-19T01:15:06.347Z,18.22
2022-08-19T01:16:06.328Z,18.23
2022-08-19T01:17:06.338Z,18.23
2022-08-19T01:18:06.298Z,18.25
2022-08-19T01:19:06.318Z,18.25
2022-08-19T01:20:06.298Z,18.25
2022-08-19T01:21:06.289Z,18.25
2022-08-19T01:22:14.347Z,18.23
2022-08-19T01:23:07.591Z,18.22
2022-08-19T01:24:06.238Z,18.20
2022-08-19T01:25:12.862Z,18.20
2022-08-19T01:26:07.226Z,18.20
2022-08-19T01:27:06.209Z,18.22
2022-08-19T01:28:09.883Z,18.22
2022-08-19T01:29:07.190Z,18.22
2022-08-19T01:30:06.215Z,18.22
2022-08-19T01:31:07.104Z,18.22
2022-08-19T01:32:06.167Z,18.19
2022-08-19T01:33:06.138Z,18.19
2022-08-19T01:34:06.143Z,18.16
2022-08-19T01:35:06.125Z,18.16
2022-08-19T01:36:06.090Z,18.15
2022-08-19T01:37:06.122Z,18.13
2022-08-19T01:38:06.079Z,18.13
2022-08-19T01:39:06.071Z,18.13
2022-08-19T01:40:09.335Z,18.11
2022-08-19T01:41:10.778Z,18.11
2022-08-19T01:42:07.077Z,18.10
2022-08-19T01:43:06.042Z,18.08
2022-08-19T01:44:17.610Z,18.08
2022-08-19T01:45:07.015Z,18.05
2022-08-19T01:46:06.061Z,18.03
2022-08-19T01:47:05.982Z,18.00
2022-08-19T01:48:05.984Z,17.98
2022-08-19T01:49:06.112Z,17.97
2022-08-19T01:50:05.942Z,17.94
2022-08-19T01:51:06.057Z,17.90
2022-08-19T01:52:05.970Z,17.89
2022-08-19T01:53:07.835Z,17.87
2022-08-19T01:54:06.056Z,17.85
2022-08-19T01:55:06.024Z,17.83
2022-08-19T01:56:06.055Z,17.79
2022-08-19T01:57:06.035Z,17.78
2022-08-19T01:58:06.077Z,17.72
2022-08-19T01:59:06.163Z,17.72
2022-08-19T02:00:06.051Z,17.72
2022-08-19T02:01:06.185Z,17.70
2022-08-19T02:02:06.077Z,17.68
2022-08-19T02:03:06.195Z,17.68
2022-08-19T02:04:06.082Z,17.67
2022-08-19T02:05:06.107Z,17.64
2022-08-19T02:06:06.167Z,17.63
2022-08-19T02:07:06.114Z,17.60
2022-08-19T02:08:06.319Z,17.60
2022-08-19T02:09:05.847Z,17.63
2022-08-19T02:10:06.634Z,17.60
2022-08-19T02:11:06.735Z,17.60
2022-08-19T02:12:06.027Z,17.63
2022-08-19T02:13:05.884Z,17.63
2022-08-19T02:14:05.998Z,17.64
2022-08-19T02:15:06.030Z,17.64
2022-08-19T02:16:05.670Z,17.64
2022-08-19T02:17:05.676Z,17.64
2022-08-19T02:18:05.677Z,17.64
2022-08-19T02:19:05.656Z,17.64
2022-08-19T02:20:05.607Z,17.60
2022-08-19T02:21:05.621Z,17.59
2022-08-19T02:22:05.587Z,17.60
2022-08-19T02:23:05.590Z,17.60
2022-08-19T02:24:06.586Z,17.59
2022-08-19T02:25:05.567Z,17.57
2022-08-19T02:26:05.546Z,17.57
2022-08-19T02:27:05.547Z,17.56
2022-08-19T02:28:05.523Z,17.54
2022-08-19T02:29:05.680Z,17.54
2022-08-19T02:30:05.511Z,17.52
2022-08-19T02:31:05.500Z,17.54
2022-08-19T02:32:05.480Z,17.51
2022-08-19T02:33:05.479Z,17.51
2022-08-19T02:34:05.451Z,17.51
2022-08-19T02:35:12.456Z,17.49
2022-08-19T02:36:06.435Z,17.51
2022-08-19T02:37:05.499Z,17.51
2022-08-19T02:38:05.499Z,17.51
2022-08-19T02:39:05.545Z,17.51
2022-08-19T02:40:12.119Z,17.54
2022-08-19T02:41:06.420Z,17.52
2022-08-19T02:42:05.521Z,17.51
2022-08-19T02:43:05.484Z,17.48
2022-08-19T02:44:29.716Z,17.48
2022-08-19T02:45:06.472Z,17.48
2022-08-19T02:46:05.323Z,17.48
2022-08-19T02:47:05.767Z,17.46
2022-08-19T02:48:05.396Z,17.48
2022-08-19T02:49:06.291Z,17.49
2022-08-19T02:50:05.279Z,17.48
2022-08-19T02:51:05.275Z,17.49
2022-08-19T02:52:05.274Z,17.48
2022-08-19T02:53:05.264Z,17.48
2022-08-19T02:54:05.235Z,17.46
2022-08-19T02:55:05.236Z,17.44
2022-08-19T02:56:05.215Z,17.41
2022-08-19T02:57:05.234Z,17.42
2022-08-19T02:58:05.216Z,17.39
2022-08-19T02:59:05.191Z,17.39
2022-08-19T03:00:05.176Z,17.44
2022-08-19T03:01:05.258Z,17.46
2022-08-19T03:02:05.155Z,17.46
2022-08-19T03:03:05.147Z,17.45
2022-08-19T03:04:05.143Z,17.45
2022-08-19T03:05:05.115Z,17.44
2022-08-19T03:06:05.108Z,17.42
2022-08-19T03:07:10.750Z,17.42
2022-08-19T03:08:06.260Z,17.42
2022-08-19T03:09:05.063Z,17.42
2022-08-19T03:10:05.063Z,17.42
2022-08-19T03:11:05.047Z,17.42
2022-08-19T03:12:05.048Z,17.39
2022-08-19T03:13:05.068Z,17.41
2022-08-19T03:14:05.020Z,17.39
2022-08-19T03:15:05.011Z,17.38
2022-08-19T03:16:04.999Z,17.36
2022-08-19T03:17:04.976Z,17.36
2022-08-19T03:18:04.976Z,17.33
2022-08-19T03:19:04.979Z,17.33
2022-08-19T03:20:04.973Z,17.33
2022-08-19T03:21:04.937Z,17.34
2022-08-19T03:22:04.939Z,17.34
2022-08-19T03:23:04.907Z,17.33
2022-08-19T03:24:04.930Z,17.31
2022-08-19T03:25:04.887Z,17.29
2022-08-19T03:26:16.459Z,17.29
2022-08-19T03:27:05.868Z,17.29
2022-08-19T03:28:04.880Z,17.27
2022-08-19T03:29:05.655Z,17.24
2022-08-19T03:30:04.854Z,17.23
2022-08-19T03:31:04.841Z,17.23
2022-08-19T03:32:05.825Z,17.23
2022-08-19T03:33:05.487Z,17.22
2022-08-19T03:34:04.808Z,17.22
2022-08-19T03:35:04.785Z,17.19
2022-08-19T03:36:04.780Z,17.16
2022-08-19T03:37:04.760Z,17.14
2022-08-19T03:38:04.748Z,17.12
2022-08-19T03:39:04.745Z,17.12
2022-08-19T03:40:04.783Z,17.14
2022-08-19T03:41:04.712Z,17.11
2022-08-19T03:42:32.263Z,17.11
2022-08-19T03:43:05.704Z,17.11
2022-08-19T03:44:04.720Z,17.11
2022-08-19T03:45:04.692Z,17.11
2022-08-19T03:46:04.691Z,17.15
2022-08-19T03:47:04.652Z,17.19
2022-08-19T03:48:04.644Z,17.19
2022-08-19T03:49:04.644Z,17.20
2022-08-19T03:50:04.644Z,17.19
2022-08-19T03:51:04.604Z,17.16
2022-08-19T03:52:04.595Z,17.14
2022-08-19T03:53:04.592Z,17.12
2022-08-19T03:54:04.584Z,17.11
2022-08-19T03:55:04.630Z,17.11
2022-08-19T03:56:04.552Z,17.08
2022-08-19T03:57:04.548Z,17.08
2022-08-19T03:58:04.636Z,17.06
2022-08-19T03:59:04.558Z,17.06
2022-08-19T04:00:13.590Z,17.05
2022-08-19T04:01:05.526Z,17.04
2022-08-19T04:02:04.560Z,17.02
2022-08-19T04:03:04.476Z,17.04
2022-08-19T04:04:04.798Z,17.01
2022-08-19T04:05:04.456Z,16.99
2022-08-19T04:06:04.436Z,16.99
2022-08-19T04:07:04.437Z,17.01
2022-08-19T04:08:04.424Z,17.01
2022-08-19T04:09:04.407Z,16.99
2022-08-19T04:10:04.438Z,16.94
2022-08-19T04:11:04.375Z,16.91
2022-08-19T04:12:04.388Z,16.93
2022-08-19T04:13:04.368Z,16.91
2022-08-19T04:14:04.444Z,16.90
2022-08-19T04:15:04.350Z,16.90
2022-08-19T04:16:04.328Z,16.89
2022-08-19T04:17:04.320Z,16.89
2022-08-19T04:18:04.338Z,16.86
2022-08-19T04:19:04.289Z,16.89
2022-08-19T04:20:07.019Z,16.87
2022-08-19T04:21:04.269Z,16.86
2022-08-19T04:22:04.269Z,16.86
2022-08-19T04:23:04.259Z,16.84
2022-08-19T04:24:04.258Z,16.84
2022-08-19T04:25:04.226Z,16.83
2022-08-19T04:26:04.246Z,16.84
2022-08-19T04:27:04.209Z,16.83
2022-08-19T04:28:04.201Z,16.81
2022-08-19T04:29:04.177Z,16.81
2022-08-19T04:30:04.187Z,16.78
2022-08-19T04:31:04.161Z,16.79
2022-08-19T04:32:09.107Z,16.79
2022-08-19T04:33:05.133Z,16.79
2022-08-19T04:34:04.121Z,16.79
2022-08-19T04:35:17.536Z,16.79
2022-08-19T04:36:05.117Z,16.81
2022-08-19T04:37:04.081Z,16.83
2022-08-19T04:38:04.109Z,16.84
2022-08-19T04:39:04.072Z,16.83
2022-08-19T04:40:04.112Z,16.84
2022-08-19T04:41:04.057Z,16.84
2022-08-19T04:42:04.058Z,16.84
2022-08-19T04:43:04.025Z,16.86
2022-08-19T04:44:04.643Z,16.86
2022-08-19T04:45:03.994Z,16.84
2022-08-19T04:46:03.992Z,16.84
2022-08-19T04:47:04.012Z,16.87
2022-08-19T04:48:26.295Z,16.89
2022-08-19T04:49:10.408Z,16.89
2022-08-19T04:50:04.945Z,16.91
2022-08-19T04:51:04.094Z,16.89
2022-08-19T04:52:03.932Z,16.90
2022-08-19T04:53:03.921Z,16.89
2022-08-19T04:54:03.907Z,16.87
2022-08-19T04:55:03.885Z,16.89
2022-08-19T04:56:03.886Z,16.87
2022-08-19T04:57:03.865Z,16.89
2022-08-19T04:58:03.865Z,16.90
2022-08-19T04:59:03.844Z,16.89
2022-08-19T05:00:03.846Z,16.90
2022-08-19T05:01:03.888Z,16.94
2022-08-19T05:02:03.813Z,16.94
2022-08-19T05:03:03.809Z,16.97
2022-08-19T05:04:03.800Z,16.99
2022-08-19T05:05:03.774Z,16.99
2022-08-19T05:06:03.787Z,17.01
2022-08-19T05:07:03.761Z,17.01
2022-08-19T05:08:03.745Z,17.01
2022-08-19T05:09:03.725Z,17.01
2022-08-19T05:10:03.737Z,17.02
2022-08-19T05:11:03.705Z,17.02
2022-08-19T05:12:03.697Z,17.04
2022-08-19T05:13:03.697Z,17.06
2022-08-19T05:14:03.690Z,17.06
2022-08-19T05:15:03.697Z,17.05
2022-08-19T05:16:03.657Z,17.05
2022-08-19T05:17:26.066Z,17.06
2022-08-19T05:18:04.649Z,17.06
2022-08-19T05:19:03.630Z,17.06
2022-08-19T05:20:03.631Z,17.08
2022-08-19T05:21:03.589Z,17.08
2022-08-19T05:22:03.590Z,17.09
2022-08-19T05:23:09.558Z,17.09
2022-08-19T05:24:04.577Z,17.11
2022-08-19T05:25:12.701Z,17.12
2022-08-19T05:26:04.542Z,17.12
2022-08-19T05:27:03.539Z,17.15
2022-08-19T05:28:03.590Z,17.15
2022-08-19T05:29:03.561Z,17.15
2022-08-19T05:30:03.550Z,17.15
2022-08-19T05:31:03.555Z,17.16
2022-08-19T05:32:03.525Z,17.16
2022-08-19T05:33:03.590Z,17.19
2022-08-19T05:34:03.554Z,17.19
2022-08-19T05:35:03.514Z,17.22
2022-08-19T05:36:04.131Z,17.20
2022-08-19T05:37:03.601Z,17.23
2022-08-19T05:38:03.590Z,17.24
2022-08-19T05:39:03.561Z,17.27
2022-08-19T05:40:03.669Z,17.27
2022-08-19T05:41:03.643Z,17.29
2022-08-19T05:42:03.682Z,17.33
2022-08-19T05:43:03.486Z,17.36
2022-08-19T05:44:03.496Z,17.39
2022-08-19T05:45:03.364Z,17.42
2022-08-19T05:46:03.422Z,17.45
2022-08-19T05:47:03.301Z,17.46
2022-08-19T05:48:03.566Z,17.45
2022-08-19T05:49:03.968Z,17.48
2022-08-19T05:50:04.899Z,17.49
2022-08-19T05:51:03.267Z,17.48
2022-08-19T05:52:03.300Z,17.51
2022-08-19T05:53:03.265Z,17.51
2022-08-19T05:54:03.232Z,17.54
2022-08-19T05:55:03.225Z,17.59
2022-08-19T05:56:03.224Z,17.63
2022-08-19T05:57:03.204Z,17.65
2022-08-19T05:58:03.228Z,17.68
2022-08-19T05:59:03.164Z,17.71
2022-08-19T06:00:03.184Z,17.74
2022-08-19T06:01:03.172Z,17.78
2022-08-19T06:02:03.152Z,17.79
2022-08-19T06:03:03.298Z,17.82
2022-08-19T06:04:04.136Z,17.83
2022-08-19T06:05:03.156Z,17.83
2022-08-19T06:06:03.138Z,17.82
2022-08-19T06:07:12.254Z,17.85
2022-08-19T06:08:04.077Z,17.85
2022-08-19T06:09:03.896Z,17.87
2022-08-19T06:10:03.084Z,17.87
2022-08-19T06:11:03.128Z,17.90
2022-08-19T06:12:03.216Z,17.92
2022-08-19T06:13:03.076Z,17.94
2022-08-19T06:14:03.228Z,17.97
2022-08-19T06:15:03.080Z,17.98
2022-08-19T06:16:03.107Z,17.98
2022-08-19T06:17:06.869Z,18.00
2022-08-19T06:18:03.168Z,18.00
2022-08-19T06:19:03.120Z,18.03
2022-08-19T06:20:03.144Z,18.03
2022-08-19T06:21:03.172Z,18.03
2022-08-19T06:22:03.177Z,18.01
2022-08-19T06:23:03.353Z,18.04
2022-08-19T06:24:03.055Z,18.04
2022-08-19T06:25:03.129Z,18.05
2022-08-19T06:26:02.870Z,18.07
2022-08-19T06:27:02.883Z,18.08
2022-08-19T06:28:18.579Z,18.10
2022-08-19T06:29:04.080Z,18.10
2022-08-19T06:30:02.828Z,18.15
2022-08-19T06:31:02.813Z,18.16
2022-08-19T06:32:02.846Z,18.19
2022-08-19T06:33:02.792Z,18.23
2022-08-19T06:34:02.781Z,18.26
2022-08-19T06:35:02.770Z,18.33
2022-08-19T06:36:02.812Z,18.34
2022-08-19T06:37:02.773Z,18.37
2022-08-19T06:38:02.742Z,18.41
2022-08-19T06:39:02.721Z,18.47
2022-08-19T06:40:02.909Z,18.53
2022-08-19T06:41:02.722Z,18.58
2022-08-19T06:42:03.968Z,18.65
2022-08-19T06:43:02.681Z,18.66
2022-08-19T06:44:02.681Z,18.71
2022-08-19T06:45:02.666Z,18.75
2022-08-19T06:46:03.661Z,18.83
2022-08-19T06:47:02.650Z,18.89
2022-08-19T06:48:03.645Z,18.96
2022-08-19T06:49:02.616Z,19.00
2022-08-19T06:50:02.893Z,19.04
2022-08-19T06:51:02.595Z,19.11
2022-08-19T06:52:03.605Z,19.12
2022-08-19T06:53:04.376Z,19.16
2022-08-19T06:54:02.567Z,19.19
2022-08-19T06:55:06.197Z,19.22
2022-08-19T06:56:02.544Z,19.27
2022-08-19T06:57:02.532Z,19.31
2022-08-19T06:58:02.535Z,19.36
2022-08-19T06:59:09.580Z,19.39
2022-08-19T07:00:02.607Z,19.40
2022-08-19T07:01:05.664Z,19.45
2022-08-19T07:02:03.479Z,19.48
2022-08-19T07:03:06.206Z,19.51
2022-08-19T07:04:03.451Z,19.52
2022-08-19T07:05:02.451Z,19.58
2022-08-19T07:06:02.452Z,19.62
2022-08-19T07:07:15.174Z,19.66
2022-08-19T07:08:05.102Z,19.71
2022-08-19T07:09:02.464Z,19.77
2022-08-19T07:10:04.862Z,19.84
2022-08-19T07:11:02.351Z,19.86
2022-08-19T07:12:03.368Z,19.92
2022-08-19T07:13:02.343Z,19.96
2022-08-19T07:14:02.350Z,20.04
2022-08-19T07:15:02.324Z,20.13
2022-08-19T07:16:02.311Z,20.19
2022-08-19T07:17:02.311Z,20.24
2022-08-19T07:18:02.295Z,20.32
2022-08-19T07:19:11.614Z,20.36
2022-08-19T07:20:05.044Z,20.41
2022-08-19T07:21:02.263Z,20.44
2022-08-19T07:22:02.255Z,20.48
2022-08-19T07:23:02.247Z,20.55
2022-08-19T07:24:05.421Z,20.59
2022-08-19T07:25:02.235Z,20.63
2022-08-19T07:27:02.219Z,20.80
2022-08-19T07:28:02.195Z,20.82
2022-08-19T07:29:02.176Z,20.87
2022-08-19T07:30:02.195Z,20.92
2022-08-19T07:31:02.195Z,20.95
2022-08-19T07:32:02.127Z,20.96
2022-08-19T07:33:03.582Z,21.00
2022-08-19T07:34:02.116Z,21.05
2022-08-19T07:35:02.147Z,21.12
2022-08-19T07:36:02.088Z,21.14
2022-08-19T07:37:02.095Z,21.18
2022-08-19T07:38:02.080Z,21.24
2022-08-19T07:39:02.055Z,21.29
2022-08-19T07:40:02.285Z,21.32
2022-08-19T07:41:02.035Z,21.35
2022-08-19T07:42:02.027Z,21.37
2022-08-19T07:43:02.027Z,21.39
2022-08-19T07:44:02.000Z,21.46
2022-08-19T07:45:02.027Z,21.52
2022-08-19T07:46:02.022Z,21.57
2022-08-19T07:47:01.968Z,21.61
2022-08-19T07:48:02.172Z,21.64
2022-08-19T07:49:01.965Z,21.67
2022-08-19T07:50:01.939Z,21.69
2022-08-19T07:51:01.927Z,21.72
2022-08-19T07:52:01.907Z,21.76
2022-08-19T07:53:01.919Z,21.79
2022-08-19T07:54:01.892Z,21.80
2022-08-19T07:55:02.060Z,21.79
2022-08-19T07:56:01.861Z,21.79
2022-08-19T07:57:01.872Z,21.82
2022-08-19T07:58:01.859Z,21.80
2022-08-19T07:59:01.852Z,21.82
2022-08-19T08:00:01.842Z,21.79
2022-08-19T08:01:01.812Z,21.77
2022-08-19T08:02:01.856Z,21.75
2022-08-19T08:03:01.796Z,21.76
2022-08-19T08:04:01.792Z,21.75
2022-08-19T08:05:01.784Z,21.73
2022-08-19T08:06:01.765Z,21.72
2022-08-19T08:07:01.752Z,21.70
2022-08-19T08:08:01.736Z,21.70
2022-08-19T08:09:01.745Z,21.73
2022-08-19T08:10:03.373Z,21.72
2022-08-19T08:11:01.712Z,21.69
2022-08-19T08:12:05.073Z,21.69
2022-08-19T08:13:09.538Z,21.73
2022-08-19T08:14:04.471Z,21.73
2022-08-19T08:15:01.683Z,21.77
2022-08-19T08:16:01.644Z,21.77
2022-08-19T08:17:01.646Z,21.73
2022-08-19T08:18:01.797Z,21.76
2022-08-19T08:19:01.668Z,21.75
2022-08-19T08:20:01.617Z,21.76
2022-08-19T08:21:01.636Z,21.79
2022-08-19T08:22:01.597Z,21.83
2022-08-19T08:23:01.577Z,21.82
2022-08-19T08:24:01.580Z,21.83
2022-08-19T08:25:01.569Z,21.85
2022-08-19T08:26:01.549Z,21.91
2022-08-19T08:27:01.549Z,21.89
2022-08-19T08:28:01.533Z,21.92
2022-08-19T08:29:01.530Z,21.95
2022-08-19T08:30:02.873Z,21.98
2022-08-19T08:31:01.509Z,21.99
2022-08-19T08:32:01.477Z,21.93
2022-08-19T08:33:02.601Z,21.92
2022-08-19T08:34:01.470Z,21.89
2022-08-19T08:35:01.469Z,21.89
2022-08-19T08:36:01.458Z,21.91
2022-08-19T08:37:01.429Z,21.89
2022-08-19T08:38:01.617Z,21.91
2022-08-19T08:39:01.424Z,21.93
2022-08-19T08:40:01.476Z,21.93
2022-08-19T08:41:01.430Z,21.96
2022-08-19T08:42:01.362Z,22.06
2022-08-19T08:44:01.341Z,22.23
2022-08-19T08:45:01.345Z,22.35
2022-08-19T08:46:01.330Z,22.39
2022-08-19T08:47:01.343Z,22.44
2022-08-19T08:48:01.322Z,22.43
2022-08-19T08:49:01.289Z,22.45
2022-08-19T08:50:01.293Z,22.50
2022-08-19T08:51:01.274Z,22.51
2022-08-19T08:52:01.254Z,22.55
2022-08-19T08:53:01.262Z,22.59
2022-08-19T08:54:01.235Z,22.68
2022-08-19T08:55:01.264Z,22.78
2022-08-19T08:56:01.638Z,22.85
2022-08-19T08:57:01.222Z,22.83
2022-08-19T08:58:01.193Z,22.76
2022-08-19T08:59:01.229Z,22.80
2022-08-19T09:00:01.173Z,22.88
2022-08-19T09:01:01.173Z,22.93
2022-08-19T09:02:01.248Z,22.98
2022-08-19T09:03:01.154Z,23.05
2022-08-19T09:04:02.690Z,23.18
2022-08-19T09:05:02.311Z,23.27
2022-08-19T09:06:01.113Z,23.25
2022-08-19T09:07:01.094Z,23.25
2022-08-19T09:08:02.086Z,23.36
2022-08-19T09:09:01.086Z,23.51
2022-08-19T09:10:01.067Z,23.63
2022-08-19T09:11:01.078Z,23.71
2022-08-19T09:12:01.038Z,23.74
2022-08-19T09:13:01.027Z,23.86
2022-08-19T09:14:01.025Z,23.63
2022-08-19T09:15:01.026Z,23.46
2022-08-19T09:16:01.173Z,23.39
2022-08-19T09:17:00.990Z,23.36
2022-08-19T09:18:01.075Z,23.34
2022-08-19T09:19:00.972Z,23.34
2022-08-19T09:20:01.659Z,23.37
2022-08-19T09:21:00.998Z,23.46
2022-08-19T09:22:00.933Z,23.51
2022-08-19T09:23:00.910Z,23.59
2022-08-19T09:24:00.912Z,23.74
2022-08-19T09:25:00.925Z,23.87
2022-08-19T09:26:00.899Z,23.96
2022-08-19T09:27:01.590Z,24.05
2022-08-19T09:28:02.433Z,23.95
2022-08-19T09:29:00.870Z,23.86
2022-08-19T09:30:00.854Z,23.76
2022-08-19T09:31:00.862Z,23.80
2022-08-19T09:32:00.837Z,23.96
2022-08-19T09:33:00.850Z,24.03
2022-08-19T09:34:00.802Z,23.91
2022-08-19T09:35:00.804Z,23.91
2022-08-19T09:36:00.875Z,23.84
2022-08-19T09:37:00.782Z,23.96
2022-08-19T09:38:00.937Z,24.03
2022-08-19T09:39:00.752Z,24.14
2022-08-19T09:40:00.872Z,24.16
2022-08-19T09:41:00.754Z,24.13
2022-08-19T09:42:00.722Z,24.05
2022-08-19T09:43:00.734Z,24.02
2022-08-19T09:44:00.688Z,23.92
2022-08-19T09:45:00.692Z,23.96
2022-08-19T09:46:00.715Z,24.05
2022-08-19T09:47:00.669Z,24.21
2022-08-19T09:48:00.643Z,24.42
2022-08-19T09:49:03.077Z,24.60
2022-08-19T09:50:01.648Z,24.57
2022-08-19T09:51:00.622Z,24.55
2022-08-19T09:52:00.608Z,24.53
2022-08-19T09:53:00.608Z,24.50
2022-08-19T09:54:00.576Z,24.43
2022-08-19T09:55:00.699Z,24.42
2022-08-19T09:56:01.556Z,24.35
2022-08-19T09:57:00.556Z,24.26
2022-08-19T09:58:00.937Z,24.13
2022-08-19T09:59:00.530Z,24.06
2022-08-19T10:00:00.541Z,24.11
2022-08-19T10:01:00.542Z,24.20
2022-08-19T10:02:03.633Z,24.29
2022-08-19T10:03:01.492Z,24.50
2022-08-19T10:04:00.491Z,24.69
2022-08-19T10:05:00.756Z,24.91
2022-08-19T10:06:00.459Z,25.10
2022-08-19T10:07:00.459Z,25.14
2022-08-19T10:08:00.472Z,25.31
2022-08-19T10:09:00.420Z,25.47
2022-08-19T10:10:00.443Z,25.46
2022-08-19T10:11:27.174Z,25.46
2022-08-19T10:12:01.386Z,25.44
2022-08-19T10:13:00.391Z,25.23
2022-08-19T10:14:00.383Z,25.18
2022-08-19T10:15:00.362Z,25.25
2022-08-19T10:16:00.343Z,25.29
2022-08-19T10:17:00.346Z,25.33
2022-08-19T10:18:00.326Z,25.25
2022-08-19T10:19:00.326Z,25.22
2022-08-19T10:20:00.304Z,25.22
2022-08-19T10:21:00.293Z,25.11
2022-08-19T10:22:00.695Z,25.18
2022-08-19T10:23:00.285Z,25.06
2022-08-19T10:24:00.246Z,25.08
2022-08-19T10:25:00.307Z,25.26
2022-08-19T10:26:00.245Z,25.38
2022-08-19T10:27:00.224Z,25.44
2022-08-19T10:28:00.217Z,25.55
2022-08-19T10:29:00.470Z,25.60
2022-08-19T10:30:00.186Z,25.47
2022-08-19T10:31:00.188Z,25.38
2022-08-19T10:32:02.464Z,25.43
2022-08-19T10:33:00.160Z,25.36
2022-08-19T10:34:00.139Z,25.36
2022-08-19T10:35:00.176Z,25.41
2022-08-19T10:36:00.124Z,25.51
2022-08-19T10:37:00.947Z,25.50
2022-08-19T10:38:01.851Z,25.40
2022-08-19T10:39:00.100Z,25.32
2022-08-19T10:40:00.189Z,25.29
2022-08-19T10:41:00.079Z,25.41
2022-08-19T10:42:00.063Z,25.51
2022-08-19T10:43:00.073Z,25.53
2022-08-19T10:44:04.218Z,25.65
2022-08-19T10:45:00.061Z,25.85
2022-08-19T10:46:00.039Z,26.02
2022-08-19T10:47:00.153Z,26.16
2022-08-19T10:48:00.003Z,26.26
2022-08-19T10:49:00.018Z,26.41
2022-08-19T10:50:00.024Z,26.36
2022-08-19T10:50:59.972Z,26.43
2022-08-19T10:51:59.964Z,26.31
2022-08-19T10:52:59.944Z,26.26
2022-08-19T10:53:59.934Z,26.22
2022-08-19T10:54:59.946Z,26.09
2022-08-19T10:56:00.916Z,25.87
2022-08-19T10:56:59.896Z,25.77
2022-08-19T10:58:02.505Z,25.81
2022-08-19T10:58:59.892Z,25.95
2022-08-19T10:59:59.877Z,26.06
2022-08-19T11:00:59.925Z,26.21
2022-08-19T11:01:59.856Z,26.34
2022-08-19T11:02:59.837Z,26.41
2022-08-19T11:03:59.862Z,26.37
2022-08-19T11:05:04.888Z,26.09
2022-08-19T11:06:00.828Z,25.88
2022-08-19T11:07:00.180Z,25.69
2022-08-19T11:07:59.852Z,25.54
2022-08-19T11:08:59.768Z,25.47
2022-08-19T11:09:59.777Z,25.44
2022-08-19T11:10:59.760Z,25.47
2022-08-19T11:11:59.780Z,25.60
2022-08-19T11:12:59.728Z,25.77
2022-08-19T11:13:59.713Z,25.91
2022-08-19T11:14:59.740Z,25.99
2022-08-19T11:16:02.838Z,26.02
2022-08-19T11:17:00.705Z,25.93
2022-08-19T11:18:00.560Z,25.77
2022-08-19T11:18:59.669Z,25.60
2022-08-19T11:19:59.652Z,25.50
2022-08-19T11:20:59.660Z,25.44
2022-08-19T11:22:00.188Z,25.43
2022-08-19T11:22:59.641Z,25.41
2022-08-19T11:23:59.620Z,25.43
2022-08-19T11:24:59.621Z,25.44
2022-08-19T11:25:59.620Z,25.48
2022-08-19T11:26:59.687Z,25.53
2022-08-19T11:27:59.625Z,25.60
2022-08-19T11:28:59.572Z,25.62
2022-08-19T11:29:59.609Z,25.53
2022-08-19T11:30:59.552Z,25.58
2022-08-19T11:31:59.605Z,25.62
2022-08-19T11:32:59.516Z,25.70
2022-08-19T11:33:59.576Z,25.77
2022-08-19T11:34:59.578Z,25.81
2022-08-19T11:35:59.504Z,25.83
2022-08-19T11:36:59.484Z,25.83
2022-08-19T11:37:59.465Z,25.95
2022-08-19T11:38:59.445Z,26.06
2022-08-19T11:39:59.472Z,26.18
2022-08-19T11:40:59.445Z,26.16
2022-08-19T11:41:59.425Z,26.15
2022-08-19T11:42:59.397Z,26.18
2022-08-19T11:43:59.401Z,26.21
2022-08-19T11:44:59.455Z,26.34
2022-08-19T11:45:59.377Z,26.37
2022-08-19T11:46:59.361Z,26.45
2022-08-19T11:48:00.357Z,26.52
2022-08-19T11:48:59.350Z,26.52
2022-08-19T11:49:59.330Z,26.52
2022-08-19T11:50:59.331Z,26.63
2022-08-19T11:51:59.307Z,26.90
2022-08-19T11:52:59.310Z,26.99
2022-08-19T11:53:59.300Z,27.11
2022-08-19T11:54:59.295Z,27.17
2022-08-19T11:55:59.320Z,26.97
2022-08-19T11:56:59.260Z,26.78
2022-08-19T11:57:59.248Z,26.60
2022-08-19T11:58:59.223Z,26.56
2022-08-19T11:59:59.234Z,26.47
2022-08-19T12:00:59.224Z,26.51
2022-08-19T12:01:59.473Z,26.59
2022-08-19T12:02:59.195Z,26.65
2022-08-19T12:03:59.300Z,26.84
2022-08-19T12:04:59.153Z,26.85
2022-08-19T12:05:59.175Z,26.92
2022-08-19T12:06:59.156Z,26.96
2022-08-19T12:07:59.153Z,26.83
2022-08-19T12:08:59.123Z,26.77
2022-08-19T12:09:59.115Z,26.66
2022-08-19T12:10:59.096Z,26.62
2022-08-19T12:11:59.144Z,26.51
2022-08-19T12:12:59.177Z,26.41
2022-08-19T12:13:59.101Z,26.36
2022-08-19T12:14:59.097Z,26.37
2022-08-19T12:15:59.067Z,26.41
2022-08-19T12:16:59.064Z,26.43
2022-08-19T12:17:59.047Z,26.43
2022-08-19T12:18:59.030Z,26.36
2022-08-19T12:19:59.022Z,26.34
2022-08-19T12:20:58.986Z,26.34
2022-08-19T12:21:59.015Z,26.25
2022-08-19T12:22:58.970Z,26.23
2022-08-19T12:23:58.962Z,26.21
2022-08-19T12:24:58.958Z,26.22
2022-08-19T12:25:58.970Z,26.10
2022-08-19T12:27:00.827Z,26.00
2022-08-19T12:27:59.359Z,26.09
2022-08-19T12:28:58.899Z,26.23
2022-08-19T12:29:58.904Z,26.43
2022-08-19T12:30:58.911Z,26.62
2022-08-19T12:31:58.904Z,26.77
2022-08-19T12:32:58.871Z,26.85
2022-08-19T12:33:58.864Z,26.92
2022-08-19T12:34:58.844Z,26.92
2022-08-19T12:35:58.844Z,27.00
2022-08-19T12:36:58.831Z,27.12
2022-08-19T12:37:59.246Z,27.17
2022-08-19T12:38:58.840Z,27.30
2022-08-19T12:39:58.845Z,27.51
2022-08-19T12:41:00.397Z,27.60
2022-08-19T12:41:58.784Z,27.65
2022-08-19T12:42:58.764Z,27.82
2022-08-19T12:43:58.764Z,27.95
2022-08-19T12:44:58.736Z,27.98
2022-08-19T12:46:53.898Z,28.05
2022-08-19T12:47:54.809Z,28.14
2022-08-19T12:48:55.240Z,28.08
2022-08-19T12:49:54.712Z,28.17
2022-08-19T12:50:51.206Z,28.27
2022-08-19T12:51:51.464Z,28.27
2022-08-19T12:52:51.192Z,28.11
2022-08-19T12:53:51.212Z,28.01
2022-08-19T12:54:54.538Z,28.07